Overview Statistics Trail Chart Weather Telemetry Raw packets
 

This is the latest recevied weather packets stored in our database for station/object KE6JJJ-1. If no packets are shown the sender has not sent any weather packets the latest 10 day(s).

<< 12 13 14 15 16 17 18 >>
Time Temp. Humidity Pressure Rain* Wind** Luminosity Snow
1788026706 18.33° C 76% 1015.9 hPa 0 mm - 733 W/m² -
1788024903 17.78° C 78% 1015.9 hPa 0 mm - 670 W/m² -
1788023103 17.78° C 79% 1015.7 hPa 0 mm - 598 W/m² -
1788021303 16.67° C 82% 1015.7 hPa 0 mm - 512 W/m² -
1788019506 16.11° C 86% 1015.5 hPa 0 mm - 448 W/m² -
1788017703 15° C 88% 1015.3 hPa 0 mm - 169 W/m² -
1788015909 15° C 89% 1015.4 hPa 0 mm - 88 W/m² -
1788014103 15° C 89% 1015.2 hPa 0 mm - 54 W/m² -
1788012303 14.44° C 90% 1014.8 hPa 0 mm - 16 W/m² -
1788010504 14.44° C 90% 1014.6 hPa 0 mm - 0 W/m² -
1788008703 14.44° C 90% 1014.5 hPa 0 mm - 0 W/m² -
1788005103 14.44° C 90% 1014.5 hPa 0 mm - 0 W/m² -
1788003303 14.44° C 90% 1014.4 hPa 0 mm - 0 W/m² -
1788001503 14.44° C 90% 1014.5 hPa 0 mm - 0 W/m² -
1787999703 14.44° C 90% 1014.5 hPa 0 mm - 0 W/m² -
1787997904 14.44° C 90% 1014.5 hPa 0 mm - 0 W/m² -
1787996103 14.44° C 90% 1014.4 hPa 0 mm - 0 W/m² -
1787994307 14.44° C 90% 1014.6 hPa 0 mm - 0 W/m² -
1787990703 14.44° C 90% 1014.8 hPa 0 mm - 0 W/m² -
1787988903 14.44° C 90% 1014.5 hPa 0 mm - 0 W/m² -
1787987103 14.44° C 90% 1014.4 hPa 0 mm - 0 W/m² -
1787985303 14.44° C 89% 1014.2 hPa 0 mm - 0 W/m² -
1787983503 14.44° C 89% 1014.2 hPa 0 mm - 0 W/m² -
1787981703 14.44° C 89% 1014.5 hPa 0 mm - 0 W/m² -
1787979903 14.44° C 88% 1014.4 hPa 0 mm - 0 W/m² -

* Rain latest hour (hover to see other rain measurements)
** Current wind speed in m/s (hover to see current wind gust speed)